Time;durP1;ratioP1;P1;durP2;ratioP2;P2;SDS_P1;SDS_P2;PMS_P1;PMS_P2;Temp;Humidity;BMP_temperature;BMP_pressure;BME280_temperature;BME280_humidity;BME280_pressure;Samples;Min_cycle;Max_cycle;Signal;HPM_P1;HPM_P2
2021/05/27 00:02:33;;;;;;;4.95;0.75;;;19.90;42.90;;;;;;6261643;28;20029;-82
2021/05/27 00:05:34;;;;;;;0.82;0.73;;;19.80;42.90;;;;;;6277401;28;20033;-82
2021/05/27 00:08:35;;;;;;;2.63;0.63;;;19.80;42.90;;;;;;6295316;28;20071;-82
2021/05/27 00:11:36;;;;;;;0.93;0.68;;;19.80;42.90;;;;;;6300098;28;20615;-82
2021/05/27 00:14:38;;;;;;;3.75;0.88;;;19.80;42.80;;;;;;6267767;28;20082;-82
2021/05/27 00:17:40;;;;;;;5.45;1.13;;;19.80;42.80;;;;;;6267622;28;20116;-82
2021/05/27 00:20:41;;;;;;;1.55;0.90;;;19.80;42.80;;;;;;6292728;28;20112;-82
2021/05/27 00:23:42;;;;;;;1.95;0.90;;;19.80;42.90;;;;;;6273171;28;20104;-82
2021/05/27 00:26:43;;;;;;;2.58;0.80;;;19.80;43.10;;;;;;6283250;28;20365;-81
2021/05/27 00:29:44;;;;;;;1.63;0.80;;;19.80;43.20;;;;;;6298392;28;20112;-81
2021/05/27 00:32:46;;;;;;;3.60;1.08;;;19.80;43.30;;;;;;6297050;28;20044;-81
2021/05/27 00:35:48;;;;;;;4.60;0.73;;;19.70;43.30;;;;;;6277060;28;20036;-82
2021/05/27 00:38:49;;;;;;;4.20;0.75;;;19.70;43.20;;;;;;6267222;28;20036;-82
2021/05/27 00:41:50;;;;;;;1.70;0.70;;;19.60;43.30;;;;;;6280636;28;20036;-82
2021/05/27 00:45:01;;;;;;;0.85;0.80;;;19.60;43.40;;;;;;6278034;28;20029;-82
2021/05/27 00:48:03;;;;;;;0.63;0.60;;;19.60;43.90;;;;;;6260795;28;20029;-82
2021/05/27 00:51:05;;;;;;;1.35;0.80;;;19.50;43.90;;;;;;6300711;28;20024;-82
2021/05/27 00:54:06;;;;;;;2.03;0.75;;;19.40;44.00;;;;;;6240829;28;20056;-82
2021/05/27 00:57:12;;;;;;;3.13;0.80;;;19.40;44.10;;;;;;6261788;28;20040;-81
2021/05/27 01:00:18;;;;;;;1.20;0.73;;;19.30;44.20;;;;;;6283452;28;20087;-81
2021/05/27 01:03:20;;;;;;;1.33;0.65;;;19.30;44.50;;;;;;6305193;28;20036;-81
2021/05/27 01:06:22;;;;;;;2.45;0.85;;;19.20;44.60;;;;;;6285522;28;20494;-82
2021/05/27 01:09:23;;;;;;;4.43;0.63;;;19.10;45.00;;;;;;6262177;28;20033;-82
2021/05/27 01:12:25;;;;;;;3.20;0.68;;;19.00;45.30;;;;;;6293363;28;20044;-82
2021/05/27 01:18:31;;;;;;;4.05;1.02;;;18.90;46.40;;;;;;6294261;28;20024;-82
2021/05/27 01:21:33;;;;;;;2.08;0.93;;;18.90;45.90;;;;;;6269198;28;20338;-82
2021/05/27 01:24:34;;;;;;;0.98;0.50;;;18.80;46.10;;;;;;6290866;28;20033;-82
2021/05/27 01:27:36;;;;;;;0.70;0.50;;;18.90;46.20;;;;;;6271976;28;20033;-82
2021/05/27 01:30:38;;;;;;;2.45;0.95;;;18.90;46.10;;;;;;6281286;28;20356;-82
2021/05/27 01:33:45;;;;;;;3.42;0.68;;;18.90;45.90;;;;;;6270472;28;20108;-82
2021/05/27 01:36:47;;;;;;;6.10;0.77;;;18.90;45.90;;;;;;6260139;28;20025;-82
2021/05/27 01:39:48;;;;;;;1.13;0.73;;;18.90;46.00;;;;;;6285737;28;20035;-83
2021/05/27 01:42:50;;;;;;;1.80;0.73;;;18.90;46.10;;;;;;6269312;28;20033;-82
2021/05/27 01:45:52;;;;;;;6.32;0.60;;;18.90;46.10;;;;;;6270596;28;20410;-82
2021/05/27 01:48:53;;;;;;;2.88;0.90;;;18.80;46.30;;;;;;6259458;28;20104;-82
2021/05/27 01:51:55;;;;;;;1.88;0.63;;;18.80;46.30;;;;;;6279921;28;20044;-84
2021/05/27 01:54:58;;;;;;;1.55;0.82;;;18.90;46.30;;;;;;6286874;28;20065;-81
2021/05/27 01:57:59;;;;;;;1.48;0.80;;;18.90;46.70;;;;;;6298351;28;20025;-81
2021/05/27 02:01:01;;;;;;;2.97;1.10;;;18.90;46.60;;;;;;6277006;28;20430;-81
2021/05/27 02:04:08;;;;;;;2.13;0.80;;;18.80;46.70;;;;;;6260869;28;20044;-80
2021/05/27 02:07:14;;;;;;;2.35;0.63;;;18.80;46.80;;;;;;6265471;28;20115;-81
2021/05/27 02:10:19;;;;;;;1.73;0.90;;;18.80;47.00;;;;;;6298063;28;20335;-81
2021/05/27 02:13:20;;;;;;;2.88;0.93;;;18.70;47.20;;;;;;6282093;28;20040;-81
2021/05/27 02:16:23;;;;;;;1.33;0.77;;;18.70;47.40;;;;;;6273938;28;20043;-82
2021/05/27 02:19:27;;;;;;;1.83;0.88;;;18.60;47.50;;;;;;6283424;28;20067;-82
2021/05/27 02:22:30;;;;;;;2.00;0.88;;;18.60;47.60;;;;;;6281394;28;20040;-82
2021/05/27 02:25:49;;;;;;;1.48;1.02;;;18.50;47.90;;;;;;6272411;28;20049;-82
2021/05/27 02:29:03;;;;;;;1.23;0.77;;;18.40;48.80;;;;;;6264443;28;20411;-82
2021/05/27 02:32:08;;;;;;;1.33;0.82;;;18.40;48.50;;;;;;6282332;28;20040;-82
2021/05/27 02:35:10;;;;;;;1.73;0.98;;;18.30;48.50;;;;;;6267347;28;20400;-82
2021/05/27 02:38:11;;;;;;;1.75;1.00;;;18.30;48.60;;;;;;6268148;28;20048;-82
2021/05/27 02:41:19;;;;;;;2.13;0.80;;;18.30;48.70;;;;;;6286141;28;20033;-82
2021/05/27 02:44:22;;;;;;;2.75;1.02;;;18.30;48.90;;;;;;6270920;28;20096;-82
2021/05/27 02:47:26;;;;;;;1.90;0.65;;;18.30;48.90;;;;;;6275566;28;20469;-82
2021/05/27 02:50:27;;;;;;;4.20;1.50;;;18.20;48.90;;;;;;6246530;28;20136;-82
2021/05/27 02:53:30;;;;;;;2.95;1.10;;;18.20;48.80;;;;;;6301005;28;20407;-82
2021/05/27 02:56:32;;;;;;;6.30;0.90;;;18.20;48.80;;;;;;6281391;28;20093;-82
2021/05/27 02:59:35;;;;;;;4.63;1.13;;;18.20;48.80;;;;;;6280598;28;20028;-81
2021/05/27 03:02:37;;;;;;;5.70;1.00;;;18.20;48.70;;;;;;6265130;28;20116;-81
2021/05/27 03:05:39;;;;;;;7.45;0.93;;;18.30;48.60;;;;;;6273422;28;20469;-83
2021/05/27 03:08:43;;;;;;;1.65;1.00;;;18.20;48.50;;;;;;6274394;28;20036;-82
2021/05/27 03:11:45;;;;;;;7.57;1.00;;;18.20;48.50;;;;;;6280602;28;20042;-84
2021/05/27 03:14:47;;;;;;;5.78;0.95;;;18.20;48.60;;;;;;6295979;28;20040;-81
2021/05/27 03:17:54;;;;;;;4.60;1.13;;;18.30;48.70;;;;;;6274612;28;20527;-81
2021/05/27 03:20:57;;;;;;;4.00;1.02;;;18.20;48.70;;;;;;6282751;28;20035;-81
2021/05/27 03:23:59;;;;;;;5.25;1.00;;;18.20;48.50;;;;;;6298760;28;20119;-82
2021/05/27 03:27:00;;;;;;;2.42;0.90;;;18.20;48.40;;;;;;6266922;28;20048;-81
2021/05/27 03:30:05;;;;;;;2.05;1.00;;;18.20;48.40;;;;;;6256915;28;20025;-82
2021/05/27 03:33:09;;;;;;;1.63;0.82;;;18.20;48.50;;;;;;6271408;28;20389;-82
2021/05/27 03:36:12;;;;;;;2.95;0.70;;;18.10;48.50;;;;;;6262040;28;20045;-82
2021/05/27 03:39:17;;;;;;;1.10;0.68;;;18.10;48.80;;;;;;6262887;28;20374;-82
2021/05/27 03:42:21;;;;;;;2.80;0.98;;;18.00;49.10;;;;;;6249246;28;20393;-82
2021/05/27 03:45:31;;;;;;;2.28;1.08;;;18.00;49.30;;;;;;6278428;28;20041;-82
2021/05/27 03:48:40;;;;;;;3.47;0.88;;;17.90;49.50;;;;;;6259730;28;20078;-82
2021/05/27 03:51:42;;;;;;;2.63;1.13;;;17.90;49.70;;;;;;6255610;28;20032;-81
2021/05/27 03:54:46;;;;;;;2.75;1.00;;;17.80;49.70;;;;;;6255501;28;20091;-82
2021/05/27 03:57:48;;;;;;;2.38;1.17;;;17.80;50.00;;;;;;6259790;28;20069;-82
2021/05/27 04:00:50;;;;;;;4.93;1.10;;;17.80;50.10;;;;;;6288323;28;20033;-81
2021/05/27 04:07:29;;;;;;;10.00;1.17;;;17.70;50.20;;;;;;6275858;28;20033;-82
2021/05/27 04:10:30;;;;;;;4.18;1.00;;;17.60;50.30;;;;;;6275452;28;20036;-81
2021/05/27 04:13:31;;;;;;;2.80;0.93;;;17.60;50.30;;;;;;6286002;28;20033;-81
2021/05/27 04:16:34;;;;;;;1.30;0.85;;;17.60;50.40;;;;;;6273983;28;20377;-82
2021/05/27 04:19:35;;;;;;;2.38;1.05;;;17.50;50.40;;;;;;6261899;28;20048;-82
2021/05/27 04:22:39;;;;;;;5.22;1.48;;;17.50;50.40;;;;;;6281814;28;20041;-81
2021/05/27 04:25:41;;;;;;;3.95;1.10;;;17.50;50.50;;;;;;6256282;28;20065;-82
2021/05/27 04:28:44;;;;;;;3.78;1.30;;;17.50;50.50;;;;;;6255468;28;20051;-82
2021/05/27 04:31:45;;;;;;;2.63;1.20;;;17.50;50.40;;;;;;6276189;28;20478;-82
2021/05/27 04:34:47;;;;;;;3.55;1.60;;;17.50;50.40;;;;;;6261720;28;20116;-81
2021/05/27 04:37:50;;;;;;;5.18;1.65;;;17.50;50.50;;;;;;6287102;28;20041;-81
2021/05/27 04:40:52;;;;;;;4.00;1.23;;;17.50;50.60;;;;;;6292928;28;20036;-82
2021/05/27 04:43:54;;;;;;;4.15;1.90;;;17.50;50.60;;;;;;6278535;28;20457;-81
2021/05/27 04:46:55;;;;;;;4.78;1.75;;;17.50;50.70;;;;;;6292327;28;20469;-81
2021/05/27 04:49:56;;;;;;;6.03;1.73;;;17.50;50.70;;;;;;6297861;28;20028;-81
2021/05/27 04:52:57;;;;;;;4.65;1.35;;;17.50;50.90;;;;;;6285763;28;20040;-82
2021/05/27 04:55:59;;;;;;;4.15;1.70;;;17.60;51.00;;;;;;6260814;28;20025;-83
2021/05/27 04:59:00;;;;;;;4.93;1.40;;;17.60;51.20;;;;;;6261147;28;20122;-82
2021/05/27 05:02:01;;;;;;;5.22;1.73;;;17.60;51.20;;;;;;6293999;28;20040;-82
2021/05/27 05:05:03;;;;;;;9.82;1.42;;;17.60;51.30;;;;;;6255516;28;20370;-81
2021/05/27 05:08:04;;;;;;;2.13;1.23;;;17.60;51.50;;;;;;6257733;28;20025;-82
2021/05/27 05:11:06;;;;;;;2.08;1.20;;;17.60;51.40;;;;;;6272767;28;20031;-81
2021/05/27 05:14:09;;;;;;;2.95;1.17;;;17.60;51.30;;;;;;6286116;28;20035;-81
2021/05/27 05:17:10;;;;;;;1.85;1.00;;;17.70;51.20;;;;;;6282552;28;20121;-81
2021/05/27 05:20:12;;;;;;;7.20;1.17;;;17.70;51.10;;;;;;6280308;28;20113;-81
2021/05/27 05:23:14;;;;;;;6.55;1.85;;;17.70;51.00;;;;;;6251049;28;20426;-82
2021/05/27 05:26:15;;;;;;;3.70;1.20;;;17.70;50.80;;;;;;6295046;28;20349;-82
2021/05/27 05:29:16;;;;;;;7.18;1.70;;;17.80;50.70;;;;;;6276761;28;20135;-80
2021/05/27 05:32:17;;;;;;;6.47;1.40;;;17.80;50.60;;;;;;6279496;28;20052;-83
2021/05/27 05:35:19;;;;;;;2.60;1.02;;;17.80;50.40;;;;;;6257987;28;20045;-82
2021/05/27 05:38:21;;;;;;;5.35;1.77;;;17.90;50.40;;;;;;6266567;28;20033;-83
2021/05/27 05:41:22;;;;;;;4.97;1.58;;;18.00;50.20;;;;;;6280266;28;20067;-82
2021/05/27 05:44:23;;;;;;;2.53;1.40;;;18.10;50.10;;;;;;6281452;28;20045;-82
2021/05/27 05:47:25;;;;;;;2.92;1.40;;;18.10;49.90;;;;;;6242703;28;20052;-82
2021/05/27 05:50:49;;;;;;;5.78;1.42;;;18.20;50.00;;;;;;6240824;28;22922;-83
2021/05/27 05:53:50;;;;;;;4.10;1.58;;;18.20;50.00;;;;;;6252158;28;20119;-83
2021/05/27 05:56:51;;;;;;;2.33;1.20;;;18.20;50.00;;;;;;6268026;28;20037;-82
2021/05/27 05:59:53;;;;;;;5.07;1.70;;;18.30;50.00;;;;;;6267858;28;20036;-82
2021/05/27 06:02:57;;;;;;;5.78;1.77;;;18.40;49.90;;;;;;6260341;28;20079;-84
2021/05/27 06:06:18;;;;;;;3.45;1.52;;;18.40;50.00;;;;;;6260633;28;20037;-82
2021/05/27 06:09:32;;;;;;;4.82;1.60;;;18.40;49.90;;;;;;6241788;28;20063;-85
2021/05/27 06:12:33;;;;;;;12.00;1.73;;;18.50;50.00;;;;;;6243143;28;20339;-83
2021/05/27 06:15:36;;;;;;;13.32;4.30;;;18.50;50.00;;;;;;6260874;28;20030;-82
2021/05/27 06:18:37;;;;;;;5.22;1.77;;;18.60;49.90;;;;;;6236386;28;20063;-83
2021/05/27 06:21:59;;;;;;;5.30;2.10;;;18.70;49.80;;;;;;6263988;28;20033;-81
2021/05/27 06:25:21;;;;;;;7.10;2.53;;;18.80;49.70;;;;;;6254570;28;20458;-81
2021/05/27 06:28:22;;;;;;;25.13;7.63;;;19.00;49.70;;;;;;6286485;28;20405;-81
2021/05/27 06:31:23;;;;;;;11.35;3.45;;;19.10;49.40;;;;;;6280893;28;20369;-81
2021/05/27 06:34:24;;;;;;;11.98;2.17;;;19.20;49.20;;;;;;6298032;28;20037;-82
2021/05/27 06:37:26;;;;;;;7.22;1.85;;;19.30;48.90;;;;;;6273031;28;20522;-82
2021/05/27 06:40:29;;;;;;;11.60;3.17;;;19.50;48.70;;;;;;6273558;28;20177;-82
2021/05/27 06:43:30;;;;;;;4.15;1.90;;;19.50;48.40;;;;;;6302835;28;20037;-82
2021/05/27 06:46:33;;;;;;;5.97;1.90;;;19.70;48.30;;;;;;6275960;28;20059;-82
2021/05/27 06:49:37;;;;;;;13.57;3.55;;;19.70;48.00;;;;;;6294370;28;20041;-81
2021/05/27 06:52:38;;;;;;;8.63;2.03;;;19.80;47.90;;;;;;6251595;28;20041;-80
2021/05/27 06:55:41;;;;;;;3.75;1.60;;;19.90;47.80;;;;;;6279545;28;20047;-81
2021/05/27 06:58:42;;;;;;;7.53;2.33;;;19.90;47.60;;;;;;6296454;28;20047;-81
2021/05/27 07:01:46;;;;;;;5.72;1.58;;;20.10;47.40;;;;;;6298681;28;20086;-81
2021/05/27 07:04:47;;;;;;;7.60;1.92;;;20.50;46.80;;;;;;6302970;28;20036;-80
2021/05/27 07:07:48;;;;;;;8.32;1.40;;;21.20;45.70;;;;;;6268180;28;20056;-81
2021/05/27 07:10:50;;;;;;;4.25;1.58;;;21.70;44.60;;;;;;6296781;28;20047;-81
2021/05/27 07:13:52;;;;;;;6.32;1.90;;;21.90;44.10;;;;;;6278770;28;20086;-81
2021/05/27 07:16:55;;;;;;;16.67;1.98;;;22.00;44.00;;;;;;6265555;28;20039;-81
2021/05/27 07:19:56;;;;;;;12.57;2.05;;;21.80;44.10;;;;;;6263193;28;20119;-80
2021/05/27 07:22:58;;;;;;;21.55;2.97;;;21.70;44.20;;;;;;6285027;28;20055;-81
2021/05/27 07:26:03;;;;;;;11.45;2.60;;;21.70;44.30;;;;;;6281305;28;20060;-81
2021/05/27 07:29:29;;;;;;;7.65;1.55;;;21.60;44.30;;;;;;6255236;28;20039;-81
2021/05/27 07:32:30;;;;;;;57.17;5.55;;;21.70;44.40;;;;;;6283729;28;20369;-82
2021/05/27 07:35:31;;;;;;;9.75;2.15;;;21.70;44.20;;;;;;6255036;28;20055;-81
2021/05/27 07:38:33;;;;;;;14.60;2.28;;;21.80;44.10;;;;;;6292886;28;20032;-81
2021/05/27 07:41:34;;;;;;;2.17;1.17;;;21.80;43.90;;;;;;6285683;28;20043;-81
2021/05/27 07:44:36;;;;;;;5.65;1.58;;;21.80;43.90;;;;;;6286276;28;20177;-81
2021/05/27 07:51:01;;;;;;;3.80;1.65;;;21.70;43.70;;;;;;6257674;28;20047;-81
2021/05/27 07:54:02;;;;;;;2.45;1.33;;;21.80;43.80;;;;;;6255730;28;20037;-82
2021/05/27 07:57:46;;;;;;;9.55;2.25;;;21.70;43.60;;;;;;6229033;28;20042;-82
2021/05/27 08:05:39;;;;;;;3.33;1.27;;;21.80;43.70;;;;;;6187699;28;20380;-83
2021/05/27 08:09:05;;;;;;;;;;;;;;;;;;;;;
2021/05/27 08:12:08;;;;;;;13.30;1.80;;;22.10;43.20;;;;;;6179298;28;20042;-82
2021/05/27 08:15:10;;;;;;;4.72;1.60;;;22.30;43.00;;;;;;6186435;28;20035;-81
2021/05/27 08:18:11;;;;;;;10.10;2.20;;;22.40;42.60;;;;;;6187729;28;20027;-82
2021/05/27 08:21:13;;;;;;;8.93;1.45;;;22.50;42.60;;;;;;6196842;28;20038;-83
2021/05/27 08:24:14;;;;;;;4.65;1.50;;;22.60;42.50;;;;;;6185377;28;20038;-80
2021/05/27 08:27:16;;;;;;;13.07;2.67;;;22.60;42.30;;;;;;6212605;28;20403;-84
2021/05/27 08:30:18;;;;;;;5.05;1.73;;;22.70;42.40;;;;;;6229672;28;20040;-81
2021/05/27 08:33:19;;;;;;;10.77;1.80;;;22.70;42.40;;;;;;6245507;28;20058;-81
2021/05/27 08:36:22;;;;;;;7.93;1.90;;;22.80;42.30;;;;;;6219800;28;20044;-81
2021/05/27 08:39:23;;;;;;;8.35;2.10;;;22.80;42.30;;;;;;6224581;28;20040;-83
2021/05/27 08:42:25;;;;;;;8.40;1.80;;;22.80;42.30;;;;;;6258811;28;20039;-83
2021/05/27 08:45:34;;;;;;;3.58;2.00;;;22.90;42.30;;;;;;6294486;28;20115;-81
2021/05/27 08:48:35;;;;;;;9.85;2.20;;;23.00;42.10;;;;;;6271922;28;20051;-81
2021/05/27 08:51:36;;;;;;;13.43;2.17;;;23.10;41.80;;;;;;6285208;28;20093;-82
2021/05/27 08:54:38;;;;;;;4.50;2.30;;;23.20;41.40;;;;;;6255095;28;20441;-81
2021/05/27 08:57:40;;;;;;;14.00;2.63;;;23.30;41.00;;;;;;6261936;28;20036;-82
2021/05/27 09:00:41;;;;;;;20.80;2.70;;;23.30;40.60;;;;;;6292110;28;20327;-82
2021/05/27 09:03:45;;;;;;;12.38;2.10;;;23.40;40.20;;;;;;6263149;28;20076;-81
2021/05/27 09:06:50;;;;;;;4.28;1.92;;;23.50;40.20;;;;;;6288625;28;20041;-82
2021/05/27 09:09:58;;;;;;;7.65;1.85;;;23.50;40.00;;;;;;6253071;28;20041;-81
2021/05/27 09:13:17;;;;;;;10.40;2.13;;;23.50;39.80;;;;;;6277209;28;20033;-82
2021/05/27 09:16:28;;;;;;;5.72;1.73;;;23.50;39.50;;;;;;6292490;28;20040;-82
2021/05/27 09:19:29;;;;;;;5.55;1.90;;;23.50;39.50;;;;;;6293548;28;20063;-82
2021/05/27 09:22:30;;;;;;;6.82;2.00;;;23.50;39.40;;;;;;6286757;28;20387;-82
2021/05/27 09:25:35;;;;;;;5.20;1.67;;;23.60;39.30;;;;;;6286981;28;20032;-82
2021/05/27 09:28:36;;;;;;;15.60;2.70;;;23.70;39.10;;;;;;6264434;28;20052;-81
2021/05/27 09:32:02;;;;;;;7.78;2.08;;;23.70;38.80;;;;;;6246771;28;20044;-82
2021/05/27 09:35:08;;;;;;;81.68;6.50;;;23.70;38.80;;;;;;6245820;28;20029;-84
2021/05/27 09:38:11;;;;;;;5.80;2.25;;;23.90;38.80;;;;;;6256137;28;20583;-82
2021/05/27 09:41:17;;;;;;;14.93;2.40;;;23.80;38.60;;;;;;6285587;28;20033;-84
2021/05/27 09:44:18;;;;;;;16.50;2.55;;;23.80;38.50;;;;;;6285806;28;20055;-83
2021/05/27 09:47:33;;;;;;;29.55;2.83;;;23.90;38.40;;;;;;6269553;28;20033;-83
2021/05/27 09:50:41;;;;;;;11.95;2.17;;;23.90;38.40;;;;;;6273933;28;20174;-82
2021/05/27 09:53:52;;;;;;;16.57;2.67;;;23.90;38.40;;;;;;6265966;28;20079;-82
2021/05/27 09:56:54;;;;;;;6.05;2.40;;;23.80;38.40;;;;;;6265902;28;20047;-82
2021/05/27 09:59:56;;;;;;;10.07;2.05;;;23.90;38.30;;;;;;6236859;28;20387;-83
2021/05/27 10:02:57;;;;;;;2.70;1.75;;;23.90;38.10;;;;;;6252286;28;20046;-81
2021/05/27 10:06:02;;;;;;;4.47;2.10;;;24.00;38.00;;;;;;6218719;28;20084;-81
2021/05/27 10:09:06;;;;;;;5.63;1.80;;;24.00;38.10;;;;;;6222258;28;20037;-81
2021/05/27 10:12:07;;;;;;;6.60;1.90;;;23.90;37.90;;;;;;6248297;28;20119;-83
2021/05/27 10:15:15;;;;;;;6.90;1.85;;;24.00;37.90;;;;;;6220547;28;20041;-83
2021/05/27 10:18:23;;;;;;;3.80;1.95;;;24.10;37.90;;;;;;6238575;28;20357;-83
2021/05/27 10:21:30;;;;;;;7.85;2.53;;;24.10;38.50;;;;;;6247342;28;20425;-82
2021/05/27 10:24:36;;;;;;;9.80;2.53;;;24.10;37.70;;;;;;6277062;28;20040;-81
2021/05/27 10:27:48;;;;;;;5.53;1.73;;;24.20;37.70;;;;;;6249304;28;20041;-83
2021/05/27 10:30:52;;;;;;;3.33;2.00;;;24.20;37.60;;;;;;6254406;28;20048;-83
2021/05/27 10:33:54;;;;;;;6.18;1.70;;;24.30;37.70;;;;;;6231361;28;20045;-82
2021/05/27 10:36:55;;;;;;;6.32;2.20;;;24.40;37.60;;;;;;6230662;28;20034;-82
2021/05/27 10:39:56;;;;;;;5.97;2.10;;;24.40;37.50;;;;;;6231961;28;20084;-83
2021/05/27 10:42:59;;;;;;;4.05;2.28;;;24.40;37.40;;;;;;6223854;28;20037;-81
2021/05/27 10:46:09;;;;;;;6.00;2.40;;;24.40;37.20;;;;;;6258048;28;20030;-82
2021/05/27 10:49:31;;;;;;;6.70;2.40;;;24.40;37.20;;;;;;6227563;28;20045;-82
2021/05/27 10:52:36;;;;;;;4.72;2.30;;;24.50;37.20;;;;;;6244792;28;20040;-81
2021/05/27 10:55:54;;;;;;;6.10;1.58;;;24.60;37.00;;;;;;6252710;28;20060;-83
2021/05/27 10:58:55;;;;;;;6.43;2.17;;;24.70;36.80;;;;;;6231752;28;20406;-83
2021/05/27 11:01:58;;;;;;;6.20;2.00;;;25.40;35.80;;;;;;6239049;28;20471;-82
2021/05/27 11:05:23;;;;;;;11.32;2.17;;;26.50;34.30;;;;;;6249409;28;20030;-81
2021/05/27 11:08:25;;;;;;;7.65;2.85;;;27.70;32.40;;;;;;6228372;28;20099;-82
2021/05/27 11:11:48;;;;;;;4.43;2.15;;;28.70;30.90;;;;;;6250461;28;20064;-82
2021/05/27 11:15:08;;;;;;;6.45;2.00;;;29.60;29.80;;;;;;6226507;28;20443;-81
2021/05/27 11:18:09;;;;;;;6.82;1.95;;;30.30;28.80;;;;;;6243909;28;20459;-82
2021/05/27 11:21:33;;;;;;;6.82;1.90;;;30.70;28.20;;;;;;6237390;28;20034;-81
2021/05/27 11:24:38;;;;;;;9.07;2.05;;;31.00;27.90;;;;;;6237148;28;20551;-82
2021/05/27 11:28:11;;;;;;;7.38;2.25;;;31.30;28.00;;;;;;6221714;28;20041;-82
2021/05/27 11:31:12;;;;;;;9.02;2.05;;;31.70;27.20;;;;;;6244324;28;20068;-83
2021/05/27 11:34:13;;;;;;;4.70;1.85;;;32.10;26.70;;;;;;6278250;28;20036;-83
2021/05/27 11:37:15;;;;;;;4.47;1.98;;;32.60;26.90;;;;;;6292543;28;20554;-83
2021/05/27 11:40:18;;;;;;;3.97;1.70;;;32.80;26.00;;;;;;6293738;28;20421;-82
2021/05/27 11:43:30;;;;;;;8.63;1.73;;;32.90;25.70;;;;;;6292751;28;20122;-82
2021/05/27 11:46:31;;;;;;;3.35;1.92;;;33.00;25.40;;;;;;6263401;28;20068;-83
2021/05/27 11:50:08;;;;;;;5.90;2.08;;;32.90;25.40;;;;;;6232607;28;20029;-83
2021/05/27 11:53:11;;;;;;;4.50;1.65;;;32.80;25.50;;;;;;6250820;28;20417;-82
2021/05/27 11:56:25;;;;;;;7.05;1.88;;;32.80;25.50;;;;;;6257093;28;20115;-82
2021/05/27 11:59:26;;;;;;;4.35;2.00;;;32.70;25.40;;;;;;6242833;28;20037;-82
2021/05/27 12:02:46;;;;;;;9.48;2.28;;;32.70;25.50;;;;;;6265108;28;20092;-81
2021/05/27 12:05:48;;;;;;;7.90;2.00;;;32.80;25.60;;;;;;6250984;28;20099;-82
2021/05/27 12:08:49;;;;;;;3.63;1.70;;;33.00;25.20;;;;;;6264107;28;20033;-82
2021/05/27 12:11:50;;;;;;;4.13;1.65;;;33.00;25.00;;;;;;6264139;28;20327;-82
2021/05/27 12:15:02;;;;;;;3.28;1.73;;;33.10;24.90;;;;;;6271935;28;20033;-81
2021/05/27 12:18:12;;;;;;;4.55;1.65;;;33.30;24.80;;;;;;6273685;28;20036;-81
2021/05/27 12:21:13;;;;;;;4.50;1.80;;;33.40;25.00;;;;;;6294148;28;20035;-81
2021/05/27 12:24:30;;;;;;;13.65;2.13;;;33.60;24.40;;;;;;6262493;28;20048;-81
2021/05/27 12:27:43;;;;;;;4.13;1.95;;;33.60;24.40;;;;;;6268205;28;20112;-83
2021/05/27 12:30:56;;;;;;;4.50;1.70;;;33.60;24.30;;;;;;6274684;28;20033;-81
2021/05/27 12:34:01;;;;;;;3.30;1.80;;;33.60;24.30;;;;;;6282425;28;20059;-83
2021/05/27 12:37:02;;;;;;;3.85;1.60;;;33.50;24.40;;;;;;6267086;28;20087;-82
2021/05/27 12:40:05;;;;;;;6.90;2.30;;;33.50;24.30;;;;;;6269428;28;20180;-82
2021/05/27 12:43:26;;;;;;;3.53;1.77;;;33.50;24.30;;;;;;6286595;28;20052;-82
2021/05/27 12:46:34;;;;;;;4.85;1.60;;;33.70;24.00;;;;;;6281405;28;20025;-82
2021/05/27 12:49:35;;;;;;;5.07;1.88;;;33.80;23.90;;;;;;6231372;28;20095;-82
2021/05/27 12:52:41;;;;;;;7.63;2.17;;;33.80;23.80;;;;;;6271504;28;20045;-82
2021/05/27 12:55:43;;;;;;;5.22;1.98;;;33.80;23.90;;;;;;6279955;28;20040;-83
2021/05/27 12:58:46;;;;;;;3.95;2.22;;;33.90;23.80;;;;;;6283058;28;20051;-81
2021/05/27 13:01:57;;;;;;;16.80;3.28;;;34.20;23.60;;;;;;6271454;28;20465;-82
2021/05/27 13:05:13;;;;;;;5.25;1.67;;;34.50;23.30;;;;;;6284233;28;20462;-82
2021/05/27 13:08:15;;;;;;;8.43;2.13;;;34.80;22.80;;;;;;6262230;28;20078;-82
2021/05/27 13:11:21;;;;;;;9.10;2.40;;;35.00;22.60;;;;;;6259422;28;20366;-83
2021/05/27 13:14:24;;;;;;;4.53;2.10;;;35.10;22.50;;;;;;6282721;28;20111;-82
2021/05/27 13:17:25;;;;;;;6.18;2.22;;;35.60;22.40;;;;;;6280504;28;20064;-82
2021/05/27 13:20:26;;;;;;;7.15;2.30;;;36.00;21.80;;;;;;6261190;28;20043;-82
2021/05/27 13:23:37;;;;;;;10.07;1.85;;;36.30;21.40;;;;;;6256207;28;20064;-81
2021/05/27 13:26:39;;;;;;;4.80;2.08;;;36.60;21.30;;;;;;6272299;28;20134;-82
2021/05/27 13:29:51;;;;;;;4.60;2.00;;;37.00;21.00;;;;;;6239950;28;20473;-82
2021/05/27 13:33:01;;;;;;;6.40;1.85;;;37.60;20.50;;;;;;6275828;28;20037;-83
2021/05/27 13:36:03;;;;;;;6.63;2.00;;;37.90;20.10;;;;;;6274004;28;20060;-82
2021/05/27 13:39:22;;;;;;;4.80;1.77;;;38.10;19.80;;;;;;6288917;28;20032;-82
2021/05/27 13:42:24;;;;;;;5.35;1.80;;;38.20;19.70;;;;;;6291954;28;20037;-82
2021/05/27 13:45:28;;;;;;;6.60;1.90;;;38.60;19.60;;;;;;6281827;28;20101;-83
2021/05/27 13:48:32;;;;;;;6.32;1.67;;;39.00;19.10;;;;;;6252752;28;20480;-82
2021/05/27 13:51:37;;;;;;;6.47;1.98;;;39.10;18.90;;;;;;6292701;28;20413;-81
2021/05/27 13:54:40;;;;;;;4.50;2.00;;;39.10;18.90;;;;;;6295244;28;20028;-81
2021/05/27 13:57:42;;;;;;;9.52;2.08;;;39.30;18.80;;;;;;6296135;28;20033;-83
2021/05/27 14:00:43;;;;;;;4.03;2.17;;;39.60;18.60;;;;;;6293118;28;20128;-83
2021/05/27 14:03:45;;;;;;;4.65;1.77;;;39.70;18.50;;;;;;6293126;28;20041;-81
2021/05/27 14:06:46;;;;;;;6.90;1.85;;;39.90;18.20;;;;;;6291790;28;20047;-82
2021/05/27 14:09:47;;;;;;;6.53;1.95;;;39.90;18.20;;;;;;6275244;28;20459;-81
2021/05/27 14:12:48;;;;;;;5.47;2.50;;;40.00;18.20;;;;;;6252639;28;20029;-83
2021/05/27 14:15:49;;;;;;;7.72;2.17;;;40.00;18.00;;;;;;6253984;28;20083;-82
2021/05/27 14:18:51;;;;;;;5.32;2.30;;;40.10;18.10;;;;;;6262934;28;20036;-81
2021/05/27 14:21:53;;;;;;;6.53;2.47;;;40.60;17.80;;;;;;6279197;28;20112;-81
2021/05/27 14:24:55;;;;;;;6.90;2.45;;;40.70;17.50;;;;;;6281640;28;20045;-82
2021/05/27 14:27:57;;;;;;;5.88;1.88;;;40.50;17.40;;;;;;6273448;28;20048;-82
2021/05/27 14:30:58;;;;;;;5.55;1.80;;;40.40;17.50;;;;;;6279663;28;20040;-82
2021/05/27 14:34:00;;;;;;;8.68;3.00;;;40.30;17.40;;;;;;6246384;28;20354;-82
2021/05/27 14:37:04;;;;;;;4.28;1.73;;;40.10;17.30;;;;;;6275819;28;21509;-83
2021/05/27 14:40:07;;;;;;;4.47;1.67;;;39.90;17.50;;;;;;6285744;28;20453;-82
2021/05/27 14:43:09;;;;;;;2.30;1.70;;;39.70;17.50;;;;;;6262539;28;20346;-82
2021/05/27 14:46:10;;;;;;;6.28;1.85;;;39.50;17.70;;;;;;6267449;28;20086;-81
2021/05/27 14:49:12;;;;;;;4.78;2.10;;;39.30;17.70;;;;;;6264388;28;20045;-82
2021/05/27 14:52:13;;;;;;;7.10;1.77;;;39.30;17.70;;;;;;6260648;28;20411;-81
2021/05/27 14:55:14;;;;;;;8.23;2.13;;;39.20;17.80;;;;;;6296695;28;20061;-82
2021/05/27 14:58:15;;;;;;;5.43;1.98;;;39.00;17.70;;;;;;6286401;28;20033;-82
2021/05/27 15:01:16;;;;;;;4.50;1.90;;;38.80;17.60;;;;;;6241871;28;20033;-82
2021/05/27 15:04:18;;;;;;;4.40;1.85;;;38.30;18.00;;;;;;6295361;28;20036;-83
2021/05/27 15:07:20;;;;;;;5.30;1.67;;;37.20;18.70;;;;;;6285229;28;20077;-82
2021/05/27 15:10:22;;;;;;;3.17;1.63;;;35.90;19.80;;;;;;6268404;28;20107;-81
2021/05/27 15:13:24;;;;;;;4.47;2.10;;;34.70;20.90;;;;;;6268579;28;20047;-82
2021/05/27 15:16:26;;;;;;;5.40;1.55;;;34.00;21.40;;;;;;6259939;28;20445;-82
2021/05/27 15:19:27;;;;;;;5.88;1.90;;;34.30;21.10;;;;;;6257286;28;20139;-81
2021/05/27 15:22:29;;;;;;;6.15;1.55;;;34.80;20.70;;;;;;6268504;28;20053;-81
2021/05/27 15:25:30;;;;;;;2.65;1.52;;;35.10;20.20;;;;;;6292445;28;20032;-82
2021/05/27 15:28:31;;;;;;;2.40;1.27;;;35.30;19.80;;;;;;6304388;28;20044;-81
2021/05/27 15:31:32;;;;;;;7.07;1.80;;;35.50;19.70;;;;;;6287310;28;20093;-82
2021/05/27 15:34:34;;;;;;;4.38;1.80;;;35.70;19.50;;;;;;6282144;28;20024;-84
2021/05/27 15:37:35;;;;;;;6.78;1.80;;;36.00;19.40;;;;;;6288303;28;20052;-82
2021/05/27 15:40:36;;;;;;;6.57;1.88;;;36.30;19.20;;;;;;6249633;28;20036;-83
2021/05/27 15:43:37;;;;;;;3.53;1.45;;;36.40;18.90;;;;;;6293700;28;20028;-82
2021/05/27 15:46:38;;;;;;;7.70;1.90;;;36.80;18.80;;;;;;6246480;28;20041;-82
2021/05/27 15:49:40;;;;;;;6.10;3.03;;;37.10;18.50;;;;;;6263116;28;20044;-82
2021/05/27 15:52:41;;;;;;;4.38;1.38;;;37.20;18.30;;;;;;6244209;28;20346;-82
2021/05/27 15:55:42;;;;;;;3.67;1.70;;;37.30;17.90;;;;;;6297387;28;20099;-82
2021/05/27 15:58:44;;;;;;;3.55;1.65;;;37.10;18.10;;;;;;6265468;28;20143;-83
2021/05/27 16:01:46;;;;;;;8.80;1.73;;;37.00;18.30;;;;;;6273992;28;20373;-83
2021/05/27 16:04:47;;;;;;;6.05;1.75;;;36.90;18.00;;;;;;6269455;28;20036;-83
2021/05/27 16:07:53;;;;;;;7.53;1.75;;;36.70;18.10;;;;;;6276309;28;20072;-82
2021/05/27 16:10:57;;;;;;;3.90;1.30;;;36.70;18.10;;;;;;6262825;28;20025;-82
2021/05/27 16:13:58;;;;;;;3.78;1.70;;;36.60;17.90;;;;;;6295813;28;20033;-82
2021/05/27 16:16:59;;;;;;;4.70;1.98;;;36.40;17.70;;;;;;6295009;28;20037;-82